Terminal Aerodrome Forecast
Issued by NWS Sterling, VA

Current Version | Previous Version | Graphics & Text | Print | Product List | Glossary On
Versions: 1 2 3 4 5 6 7 8 9 10 11 12 13 14 15 16 17 18 19 20 21 22 23 24 25
000
FTUS41 KLWX 200500 RRA
TAFDCA
TAF
KDCA 200541Z 2006/2106 VRB03KT P6SM FEW200
     FM201400 18006KT P6SM SCT200
     FM201900 19011G17KT P6SM BKN180
     FM202300 19006KT P6SM BKN120=

USA.gov is the U.S. government's official web portal to all federal, state and local government web resources and services.